sensor_id;sensor_type;location;lat;lon;timestamp;temperature;humidity
53926;DHT22;39836;52.754;6.866;2022-09-09T00:01:59;13.80;81.70
53926;DHT22;39836;52.754;6.866;2022-09-09T00:09:22;13.80;81.80
53926;DHT22;39836;52.754;6.866;2022-09-09T00:12:12;13.80;81.80
53926;DHT22;39836;52.754;6.866;2022-09-09T00:20:58;13.80;81.70
53926;DHT22;39836;52.754;6.866;2022-09-09T00:23:30;13.80;81.70
53926;DHT22;39836;52.754;6.866;2022-09-09T00:28:54;13.80;81.70
53926;DHT22;39836;52.754;6.866;2022-09-09T00:31:28;13.80;81.80
53926;DHT22;39836;52.754;6.866;2022-09-09T00:33:55;13.80;81.80
53926;DHT22;39836;52.754;6.866;2022-09-09T00:36:26;13.70;81.70
53926;DHT22;39836;52.754;6.866;2022-09-09T00:38:59;13.80;81.80
53926;DHT22;39836;52.754;6.866;2022-09-09T00:41:56;13.70;81.80
53926;DHT22;39836;52.754;6.866;2022-09-09T00:44:33;13.70;81.70
53926;DHT22;39836;52.754;6.866;2022-09-09T00:50:01;13.70;81.80
53926;DHT22;39836;52.754;6.866;2022-09-09T00:55:28;13.70;81.80
53926;DHT22;39836;52.754;6.866;2022-09-09T00:57:57;13.70;81.80
53926;DHT22;39836;52.754;6.866;2022-09-09T01:00:27;13.70;81.80
53926;DHT22;39836;52.754;6.866;2022-09-09T01:05:36;13.70;81.80
53926;DHT22;39836;52.754;6.866;2022-09-09T01:08:09;13.70;81.90
53926;DHT22;39836;52.754;6.866;2022-09-09T01:10:49;13.80;81.90
53926;DHT22;39836;52.754;6.866;2022-09-09T01:13:30;13.80;81.90
53926;DHT22;39836;52.754;6.866;2022-09-09T01:16:01;13.90;82.00
53926;DHT22;39836;52.754;6.866;2022-09-09T01:18:34;14.00;82.00
53926;DHT22;39836;52.754;6.866;2022-09-09T01:21:16;14.10;82.10
53926;DHT22;39836;52.754;6.866;2022-09-09T01:24:25;14.20;82.10
53926;DHT22;39836;52.754;6.866;2022-09-09T01:26:56;14.20;82.10
53926;DHT22;39836;52.754;6.866;2022-09-09T01:29:24;14.20;82.10
53926;DHT22;39836;52.754;6.866;2022-09-09T01:34:45;14.30;82.20
53926;DHT22;39836;52.754;6.866;2022-09-09T01:37:12;14.30;82.20
53926;DHT22;39836;52.754;6.866;2022-09-09T01:39:41;14.30;82.20
53926;DHT22;39836;52.754;6.866;2022-09-09T01:42:09;14.30;82.20
53926;DHT22;39836;52.754;6.866;2022-09-09T01:44:38;14.30;82.20
53926;DHT22;39836;52.754;6.866;2022-09-09T01:47:04;14.30;82.20
53926;DHT22;39836;52.754;6.866;2022-09-09T01:49:30;14.30;82.20
53926;DHT22;39836;52.754;6.866;2022-09-09T01:51:58;14.30;82.20
53926;DHT22;39836;52.754;6.866;2022-09-09T01:54:26;14.20;82.20
53926;DHT22;39836;52.754;6.866;2022-09-09T01:59:54;14.20;82.20
53926;DHT22;39836;52.754;6.866;2022-09-09T02:02:30;14.20;82.20
53926;DHT22;39836;52.754;6.866;2022-09-09T02:05:22;14.10;82.10
53926;DHT22;39836;52.754;6.866;2022-09-09T02:07:51;14.10;82.10
53926;DHT22;39836;52.754;6.866;2022-09-09T02:10:30;14.10;82.10
53926;DHT22;39836;52.754;6.866;2022-09-09T02:13:11;14.10;82.10
53926;DHT22;39836;52.754;6.866;2022-09-09T02:15:47;14.10;82.10
53926;DHT22;39836;52.754;6.866;2022-09-09T02:18:30;14.00;82.10
53926;DHT22;39836;52.754;6.866;2022-09-09T02:20:58;14.10;82.20
53926;DHT22;39836;52.754;6.866;2022-09-09T02:23:25;14.10;82.20
53926;DHT22;39836;52.754;6.866;2022-09-09T02:25:51;14.10;82.20
53926;DHT22;39836;52.754;6.866;2022-09-09T02:28:20;14.10;82.20
53926;DHT22;39836;52.754;6.866;2022-09-09T02:30:50;14.10;82.20
53926;DHT22;39836;52.754;6.866;2022-09-09T02:33:25;14.10;82.20
53926;DHT22;39836;52.754;6.866;2022-09-09T02:35:53;14.10;82.20
53926;DHT22;39836;52.754;6.866;2022-09-09T02:38:20;14.10;82.20
53926;DHT22;39836;52.754;6.866;2022-09-09T02:40:47;14.10;82.20
53926;DHT22;39836;52.754;6.866;2022-09-09T02:43:15;14.20;82.20
53926;DHT22;39836;52.754;6.866;2022-09-09T02:49:09;14.20;82.20
53926;DHT22;39836;52.754;6.866;2022-09-09T02:54:30;14.30;82.30
53926;DHT22;39836;52.754;6.866;2022-09-09T02:57:10;14.30;82.30
53926;DHT22;39836;52.754;6.866;2022-09-09T02:59:37;14.30;82.30
53926;DHT22;39836;52.754;6.866;2022-09-09T03:02:02;14.30;82.30
53926;DHT22;39836;52.754;6.866;2022-09-09T03:04:29;14.30;82.30
53926;DHT22;39836;52.754;6.866;2022-09-09T03:06:55;14.20;82.20
53926;DHT22;39836;52.754;6.866;2022-09-09T03:09:21;14.20;82.20
53926;DHT22;39836;52.754;6.866;2022-09-09T03:11:47;14.20;82.20
53926;DHT22;39836;52.754;6.866;2022-09-09T03:14:12;14.20;82.20
53926;DHT22;39836;52.754;6.866;2022-09-09T03:16:38;14.20;82.20
53926;DHT22;39836;52.754;6.866;2022-09-09T03:19:04;14.20;82.20
53926;DHT22;39836;52.754;6.866;2022-09-09T03:21:29;14.20;82.20
53926;DHT22;39836;52.754;6.866;2022-09-09T03:23:55;14.20;82.20
53926;DHT22;39836;52.754;6.866;2022-09-09T03:26:21;14.20;82.20
53926;DHT22;39836;52.754;6.866;2022-09-09T03:28:47;14.20;82.20
53926;DHT22;39836;52.754;6.866;2022-09-09T03:31:12;14.10;82.20
53926;DHT22;39836;52.754;6.866;2022-09-09T03:33:38;14.10;82.20
53926;DHT22;39836;52.754;6.866;2022-09-09T03:36:06;14.00;82.10
53926;DHT22;39836;52.754;6.866;2022-09-09T03:38:34;14.10;82.20
53926;DHT22;39836;52.754;6.866;2022-09-09T03:41:00;14.00;82.20
53926;DHT22;39836;52.754;6.866;2022-09-09T03:43:28;14.00;82.10
53926;DHT22;39836;52.754;6.866;2022-09-09T03:45:54;14.00;82.10
53926;DHT22;39836;52.754;6.866;2022-09-09T03:48:22;14.00;82.10
53926;DHT22;39836;52.754;6.866;2022-09-09T03:50:50;14.00;82.10
53926;DHT22;39836;52.754;6.866;2022-09-09T03:53:18;14.00;82.10
53926;DHT22;39836;52.754;6.866;2022-09-09T03:55:50;13.90;82.10
53926;DHT22;39836;52.754;6.866;2022-09-09T03:58:18;14.00;82.10
53926;DHT22;39836;52.754;6.866;2022-09-09T04:00:56;14.00;82.10
53926;DHT22;39836;52.754;6.866;2022-09-09T04:03:22;14.00;82.20
53926;DHT22;39836;52.754;6.866;2022-09-09T04:05:53;14.00;82.20
53926;DHT22;39836;52.754;6.866;2022-09-09T04:08:20;14.00;82.20
53926;DHT22;39836;52.754;6.866;2022-09-09T04:10:49;14.00;82.20
53926;DHT22;39836;52.754;6.866;2022-09-09T04:13:16;14.10;82.20
53926;DHT22;39836;52.754;6.866;2022-09-09T04:15:44;14.10;82.20
53926;DHT22;39836;52.754;6.866;2022-09-09T04:18:10;14.10;82.20
53926;DHT22;39836;52.754;6.866;2022-09-09T04:20:37;14.10;82.20
53926;DHT22;39836;52.754;6.866;2022-09-09T04:23:03;14.00;82.20
53926;DHT22;39836;52.754;6.866;2022-09-09T04:25:30;14.10;82.20
53926;DHT22;39836;52.754;6.866;2022-09-09T04:27:58;14.10;82.20
53926;DHT22;39836;52.754;6.866;2022-09-09T04:30:25;14.10;82.20
53926;DHT22;39836;52.754;6.866;2022-09-09T04:32:51;14.10;82.20
53926;DHT22;39836;52.754;6.866;2022-09-09T04:35:16;14.10;82.20
53926;DHT22;39836;52.754;6.866;2022-09-09T04:37:42;14.00;82.20
53926;DHT22;39836;52.754;6.866;2022-09-09T04:40:09;14.10;82.20
53926;DHT22;39836;52.754;6.866;2022-09-09T04:42:39;14.00;82.10
53926;DHT22;39836;52.754;6.866;2022-09-09T04:45:06;14.00;82.20
53926;DHT22;39836;52.754;6.866;2022-09-09T04:47:32;14.00;82.10
53926;DHT22;39836;52.754;6.866;2022-09-09T04:49:58;14.00;82.20
53926;DHT22;39836;52.754;6.866;2022-09-09T04:52:24;14.00;82.20
53926;DHT22;39836;52.754;6.866;2022-09-09T04:54:50;14.00;82.20
53926;DHT22;39836;52.754;6.866;2022-09-09T04:57:15;14.00;82.20
53926;DHT22;39836;52.754;6.866;2022-09-09T04:59:41;14.00;82.20
53926;DHT22;39836;52.754;6.866;2022-09-09T05:02:07;14.00;82.10
53926;DHT22;39836;52.754;6.866;2022-09-09T05:04:32;14.00;82.10
53926;DHT22;39836;52.754;6.866;2022-09-09T05:06:58;14.00;82.10
53926;DHT22;39836;52.754;6.866;2022-09-09T05:09:24;13.90;82.10
53926;DHT22;39836;52.754;6.866;2022-09-09T05:11:50;13.90;82.10
53926;DHT22;39836;52.754;6.866;2022-09-09T05:14:17;14.00;82.10
53926;DHT22;39836;52.754;6.866;2022-09-09T05:16:44;13.90;82.10
53926;DHT22;39836;52.754;6.866;2022-09-09T05:19:10;13.90;82.10
53926;DHT22;39836;52.754;6.866;2022-09-09T05:21:37;13.90;82.10
53926;DHT22;39836;52.754;6.866;2022-09-09T05:24:02;13.90;82.10
53926;DHT22;39836;52.754;6.866;2022-09-09T05:26:28;13.90;82.10
53926;DHT22;39836;52.754;6.866;2022-09-09T05:28:58;13.90;82.10
53926;DHT22;39836;52.754;6.866;2022-09-09T05:31:26;13.90;82.10
53926;DHT22;39836;52.754;6.866;2022-09-09T05:33:53;13.90;82.10
53926;DHT22;39836;52.754;6.866;2022-09-09T05:36:20;13.80;82.00
53926;DHT22;39836;52.754;6.866;2022-09-09T05:38:47;13.90;82.10
53926;DHT22;39836;52.754;6.866;2022-09-09T05:41:13;13.90;82.10
53926;DHT22;39836;52.754;6.866;2022-09-09T05:43:41;13.90;82.00
53926;DHT22;39836;52.754;6.866;2022-09-09T05:46:20;13.90;82.00
53926;DHT22;39836;52.754;6.866;2022-09-09T05:48:47;13.90;82.00
53926;DHT22;39836;52.754;6.866;2022-09-09T05:51:17;13.90;82.10
53926;DHT22;39836;52.754;6.866;2022-09-09T05:53:44;13.90;82.10
53926;DHT22;39836;52.754;6.866;2022-09-09T05:56:12;14.00;82.20
53926;DHT22;39836;52.754;6.866;2022-09-09T05:58:41;14.00;82.10
53926;DHT22;39836;52.754;6.866;2022-09-09T06:01:33;14.00;82.10
53926;DHT22;39836;52.754;6.866;2022-09-09T06:03:59;14.10;82.10
53926;DHT22;39836;52.754;6.866;2022-09-09T06:06:26;14.10;82.10
53926;DHT22;39836;52.754;6.866;2022-09-09T06:08:54;14.10;82.10
53926;DHT22;39836;52.754;6.866;2022-09-09T06:11:30;14.10;82.10
53926;DHT22;39836;52.754;6.866;2022-09-09T06:14:01;14.10;82.10
53926;DHT22;39836;52.754;6.866;2022-09-09T06:16:28;14.20;82.10
53926;DHT22;39836;52.754;6.866;2022-09-09T06:18:56;14.20;82.10
53926;DHT22;39836;52.754;6.866;2022-09-09T06:21:23;14.20;82.10
53926;DHT22;39836;52.754;6.866;2022-09-09T06:23:49;14.20;82.10
53926;DHT22;39836;52.754;6.866;2022-09-09T06:28:46;14.30;82.20
53926;DHT22;39836;52.754;6.866;2022-09-09T06:31:14;14.30;82.20
53926;DHT22;39836;52.754;6.866;2022-09-09T06:33:43;14.30;82.10
53926;DHT22;39836;52.754;6.866;2022-09-09T06:36:32;14.30;82.20
53926;DHT22;39836;52.754;6.866;2022-09-09T06:38:59;14.40;82.20
53926;DHT22;39836;52.754;6.866;2022-09-09T06:41:27;14.40;82.20
53926;DHT22;39836;52.754;6.866;2022-09-09T06:43:53;14.40;82.20
53926;DHT22;39836;52.754;6.866;2022-09-09T06:46:29;14.40;82.20
53926;DHT22;39836;52.754;6.866;2022-09-09T06:48:56;14.50;82.10
53926;DHT22;39836;52.754;6.866;2022-09-09T06:51:35;14.50;82.10
53926;DHT22;39836;52.754;6.866;2022-09-09T06:54:02;14.50;82.10
53926;DHT22;39836;52.754;6.866;2022-09-09T06:56:34;14.60;82.10
53926;DHT22;39836;52.754;6.866;2022-09-09T06:59:02;14.60;82.10
53926;DHT22;39836;52.754;6.866;2022-09-09T07:01:31;14.60;82.10
53926;DHT22;39836;52.754;6.866;2022-09-09T07:03:58;14.70;82.20
53926;DHT22;39836;52.754;6.866;2022-09-09T07:06:45;14.70;82.20
53926;DHT22;39836;52.754;6.866;2022-09-09T07:09:13;14.70;82.00
53926;DHT22;39836;52.754;6.866;2022-09-09T07:11:48;14.80;82.20
53926;DHT22;39836;52.754;6.866;2022-09-09T07:14:15;14.90;82.20
53926;DHT22;39836;52.754;6.866;2022-09-09T07:16:44;14.90;82.10
53926;DHT22;39836;52.754;6.866;2022-09-09T07:19:11;15.00;82.20
53926;DHT22;39836;52.754;6.866;2022-09-09T07:21:37;14.90;82.00
53926;DHT22;39836;52.754;6.866;2022-09-09T07:24:02;14.90;81.90
53926;DHT22;39836;52.754;6.866;2022-09-09T07:26:31;14.90;82.00
53926;DHT22;39836;52.754;6.866;2022-09-09T07:28:57;15.00;82.10
53926;DHT22;39836;52.754;6.866;2022-09-09T07:31:28;15.00;82.00
53926;DHT22;39836;52.754;6.866;2022-09-09T07:33:56;15.10;82.00
53926;DHT22;39836;52.754;6.866;2022-09-09T07:36:27;15.10;82.00
53926;DHT22;39836;52.754;6.866;2022-09-09T07:38:55;15.20;82.00
53926;DHT22;39836;52.754;6.866;2022-09-09T07:41:25;15.40;82.10
53926;DHT22;39836;52.754;6.866;2022-09-09T07:43:51;15.40;82.10
53926;DHT22;39836;52.754;6.866;2022-09-09T07:46:20;15.50;82.10
53926;DHT22;39836;52.754;6.866;2022-09-09T07:48:56;15.60;82.00
53926;DHT22;39836;52.754;6.866;2022-09-09T07:51:26;15.70;81.90
53926;DHT22;39836;52.754;6.866;2022-09-09T07:53:54;15.90;82.00
53926;DHT22;39836;52.754;6.866;2022-09-09T07:56:20;16.00;82.00
53926;DHT22;39836;52.754;6.866;2022-09-09T07:58:49;16.00;81.90
53926;DHT22;39836;52.754;6.866;2022-09-09T08:01:18;16.00;81.80
53926;DHT22;39836;52.754;6.866;2022-09-09T08:03:56;16.20;81.80
53926;DHT22;39836;52.754;6.866;2022-09-09T08:06:25;16.30;81.80
53926;DHT22;39836;52.754;6.866;2022-09-09T08:08:52;16.50;81.80
53926;DHT22;39836;52.754;6.866;2022-09-09T08:11:18;16.60;81.70
53926;DHT22;39836;52.754;6.866;2022-09-09T08:13:44;16.60;81.60
53926;DHT22;39836;52.754;6.866;2022-09-09T08:16:14;16.70;81.60
53926;DHT22;39836;52.754;6.866;2022-09-09T08:18:40;16.70;81.50
53926;DHT22;39836;52.754;6.866;2022-09-09T08:21:12;16.80;81.50
53926;DHT22;39836;52.754;6.866;2022-09-09T08:23:42;16.90;81.30
53926;DHT22;39836;52.754;6.866;2022-09-09T08:26:14;16.90;81.40
53926;DHT22;39836;52.754;6.866;2022-09-09T08:28:40;17.00;81.30
53926;DHT22;39836;52.754;6.866;2022-09-09T08:33:33;17.30;81.30
53926;DHT22;39836;52.754;6.866;2022-09-09T08:35:59;17.30;81.00
53926;DHT22;39836;52.754;6.866;2022-09-09T08:38:24;17.30;81.10
53926;DHT22;39836;52.754;6.866;2022-09-09T08:40:51;17.40;81.00
53926;DHT22;39836;52.754;6.866;2022-09-09T08:43:21;17.40;80.80
53926;DHT22;39836;52.754;6.866;2022-09-09T08:45:58;17.30;80.60
53926;DHT22;39836;52.754;6.866;2022-09-09T08:48:46;17.20;80.50
53926;DHT22;39836;52.754;6.866;2022-09-09T08:51:13;17.20;80.50
53926;DHT22;39836;52.754;6.866;2022-09-09T08:53:46;17.30;80.80
53926;DHT22;39836;52.754;6.866;2022-09-09T08:56:18;17.30;80.80
53926;DHT22;39836;52.754;6.866;2022-09-09T08:58:51;17.40;80.80
53926;DHT22;39836;52.754;6.866;2022-09-09T09:10:53;17.70;80.20
53926;DHT22;39836;52.754;6.866;2022-09-09T09:15:46;17.60;80.20
53926;DHT22;39836;52.754;6.866;2022-09-09T09:18:14;17.60;80.30
53926;DHT22;39836;52.754;6.866;2022-09-09T09:20:47;17.60;80.40
53926;DHT22;39836;52.754;6.866;2022-09-09T09:23:26;17.70;80.50
53926;DHT22;39836;52.754;6.866;2022-09-09T09:25:59;17.90;80.70
53926;DHT22;39836;52.754;6.866;2022-09-09T09:28:29;18.00;80.60
53926;DHT22;39836;52.754;6.866;2022-09-09T09:31:00;18.00;80.50
53926;DHT22;39836;52.754;6.866;2022-09-09T09:36:09;18.10;79.90
53926;DHT22;39836;52.754;6.866;2022-09-09T09:38:36;18.10;80.40
53926;DHT22;39836;52.754;6.866;2022-09-09T09:41:02;18.40;80.30
53926;DHT22;39836;52.754;6.866;2022-09-09T09:43:36;18.50;79.80
53926;DHT22;39836;52.754;6.866;2022-09-09T09:46:04;18.60;79.20
53926;DHT22;39836;52.754;6.866;2022-09-09T09:48:30;18.50;79.30
53926;DHT22;39836;52.754;6.866;2022-09-09T09:50:56;18.60;79.20
53926;DHT22;39836;52.754;6.866;2022-09-09T09:53:28;18.60;79.10
53926;DHT22;39836;52.754;6.866;2022-09-09T09:56:10;18.80;79.20
53926;DHT22;39836;52.754;6.866;2022-09-09T10:01:05;18.90;78.70
53926;DHT22;39836;52.754;6.866;2022-09-09T10:03:33;18.90;78.70
53926;DHT22;39836;52.754;6.866;2022-09-09T10:06:03;18.90;78.80
53926;DHT22;39836;52.754;6.866;2022-09-09T10:08:43;18.90;78.90
53926;DHT22;39836;52.754;6.866;2022-09-09T10:11:26;18.90;78.50
53926;DHT22;39836;52.754;6.866;2022-09-09T10:14:00;19.00;78.60
53926;DHT22;39836;52.754;6.866;2022-09-09T10:19:37;19.30;78.50
53926;DHT22;39836;52.754;6.866;2022-09-09T10:22:21;19.30;78.10
53926;DHT22;39836;52.754;6.866;2022-09-09T10:35:53;19.70;78.40
53926;DHT22;39836;52.754;6.866;2022-09-09T10:44:15;20.20;77.20
53926;DHT22;39836;52.754;6.866;2022-09-09T10:52:37;20.00;77.10
53926;DHT22;39836;52.754;6.866;2022-09-09T10:55:18;20.00;77.20
53926;DHT22;39836;52.754;6.866;2022-09-09T10:57:47;20.30;77.50
53926;DHT22;39836;52.754;6.866;2022-09-09T11:00:20;20.50;77.10
53926;DHT22;39836;52.754;6.866;2022-09-09T11:02:58;20.60;76.80
53926;DHT22;39836;52.754;6.866;2022-09-09T11:08:13;20.60;76.20
53926;DHT22;39836;52.754;6.866;2022-09-09T11:10:45;20.70;76.60
53926;DHT22;39836;52.754;6.866;2022-09-09T11:15:57;21.00;75.50
53926;DHT22;39836;52.754;6.866;2022-09-09T11:18:28;21.00;75.60
53926;DHT22;39836;52.754;6.866;2022-09-09T11:21:01;20.80;75.20
53926;DHT22;39836;52.754;6.866;2022-09-09T11:23:44;20.80;75.40
53926;DHT22;39836;52.754;6.866;2022-09-09T11:26:17;20.80;75.40
53926;DHT22;39836;52.754;6.866;2022-09-09T11:31:35;21.00;75.60
53926;DHT22;39836;52.754;6.866;2022-09-09T11:42:21;21.50;74.40
53926;DHT22;39836;52.754;6.866;2022-09-09T11:44:47;21.50;74.40
53926;DHT22;39836;52.754;6.866;2022-09-09T11:47:22;21.30;74.20
53926;DHT22;39836;52.754;6.866;2022-09-09T11:49:52;21.10;74.50
53926;DHT22;39836;52.754;6.866;2022-09-09T11:55:09;20.90;74.90
53926;DHT22;39836;52.754;6.866;2022-09-09T11:57:38;20.80;74.90
53926;DHT22;39836;52.754;6.866;2022-09-09T12:00:05;20.70;75.30
53926;DHT22;39836;52.754;6.866;2022-09-09T12:02:31;20.70;74.80
53926;DHT22;39836;52.754;6.866;2022-09-09T12:05:13;20.70;74.90
53926;DHT22;39836;52.754;6.866;2022-09-09T12:07:45;20.80;74.70
53926;DHT22;39836;52.754;6.866;2022-09-09T12:10:27;20.90;75.30
53926;DHT22;39836;52.754;6.866;2022-09-09T12:12:55;21.20;75.30
53926;DHT22;39836;52.754;6.866;2022-09-09T12:15:24;21.40;74.70
53926;DHT22;39836;52.754;6.866;2022-09-09T12:17:52;21.40;73.20
53926;DHT22;39836;52.754;6.866;2022-09-09T12:20:34;21.30;74.00
53926;DHT22;39836;52.754;6.866;2022-09-09T12:24:06;21.30;74.30
53926;DHT22;39836;52.754;6.866;2022-09-09T12:34:15;20.80;73.90
53926;DHT22;39836;52.754;6.866;2022-09-09T12:36:44;20.70;73.80
53926;DHT22;39836;52.754;6.866;2022-09-09T12:39:32;20.80;74.20
53926;DHT22;39836;52.754;6.866;2022-09-09T12:41:59;20.80;74.50
53926;DHT22;39836;52.754;6.866;2022-09-09T12:44:26;20.80;74.30
53926;DHT22;39836;52.754;6.866;2022-09-09T12:47:00;20.90;74.60
53926;DHT22;39836;52.754;6.866;2022-09-09T12:49:34;21.20;74.90
53926;DHT22;39836;52.754;6.866;2022-09-09T12:52:08;21.40;74.50
53926;DHT22;39836;52.754;6.866;2022-09-09T12:54:46;21.50;74.30
53926;DHT22;39836;52.754;6.866;2022-09-09T12:57:13;21.50;74.30
53926;DHT22;39836;52.754;6.866;2022-09-09T12:59:42;21.40;74.50
53926;DHT22;39836;52.754;6.866;2022-09-09T13:02:21;21.30;74.50
53926;DHT22;39836;52.754;6.866;2022-09-09T13:04:47;21.20;74.50
53926;DHT22;39836;52.754;6.866;2022-09-09T13:07:13;21.10;74.00
53926;DHT22;39836;52.754;6.866;2022-09-09T13:09:41;20.90;73.70
53926;DHT22;39836;52.754;6.866;2022-09-09T13:12:21;20.70;73.90
53926;DHT22;39836;52.754;6.866;2022-09-09T13:14:55;20.40;74.10
53926;DHT22;39836;52.754;6.866;2022-09-09T13:17:24;20.00;76.20
53926;DHT22;39836;52.754;6.866;2022-09-09T13:19:52;19.30;78.10
53926;DHT22;39836;52.754;6.866;2022-09-09T13:25:51;18.40;79.90
53926;DHT22;39836;52.754;6.866;2022-09-09T13:27:58;18.50;80.70
53926;DHT22;39836;52.754;6.866;2022-09-09T13:30:29;19.00;81.20
53926;DHT22;39836;52.754;6.866;2022-09-09T13:33:21;19.30;80.90
53926;DHT22;39836;52.754;6.866;2022-09-09T13:36:09;19.60;80.90
53926;DHT22;39836;52.754;6.866;2022-09-09T13:38:56;20.00;80.30
53926;DHT22;39836;52.754;6.866;2022-09-09T13:41:24;20.40;80.30
53926;DHT22;39836;52.754;6.866;2022-09-09T13:43:51;20.60;79.70
53926;DHT22;39836;52.754;6.866;2022-09-09T13:46:41;20.70;78.80
53926;DHT22;39836;52.754;6.866;2022-09-09T13:51:42;20.50;78.40
53926;DHT22;39836;52.754;6.866;2022-09-09T13:54:10;20.40;77.90
53926;DHT22;39836;52.754;6.866;2022-09-09T13:56:38;20.30;78.10
53926;DHT22;39836;52.754;6.866;2022-09-09T13:59:06;20.20;78.00
53926;DHT22;39836;52.754;6.866;2022-09-09T14:01:34;20.20;78.20
53926;DHT22;39836;52.754;6.866;2022-09-09T14:04:01;20.20;78.20
53926;DHT22;39836;52.754;6.866;2022-09-09T14:06:26;20.10;77.50
53926;DHT22;39836;52.754;6.866;2022-09-09T14:08:53;19.80;77.00
53926;DHT22;39836;52.754;6.866;2022-09-09T14:11:19;19.30;77.60
53926;DHT22;39836;52.754;6.866;2022-09-09T14:13:47;18.80;78.40
53926;DHT22;39836;52.754;6.866;2022-09-09T14:16:16;18.00;79.30
53926;DHT22;39836;52.754;6.866;2022-09-09T14:18:43;17.40;79.80
53926;DHT22;39836;52.754;6.866;2022-09-09T14:21:10;17.10;80.10
53926;DHT22;39836;52.754;6.866;2022-09-09T14:23:36;17.00;80.50
53926;DHT22;39836;52.754;6.866;2022-09-09T14:26:04;16.80;80.70
53926;DHT22;39836;52.754;6.866;2022-09-09T14:28:30;16.80;80.80
53926;DHT22;39836;52.754;6.866;2022-09-09T14:31:02;16.90;81.00
53926;DHT22;39836;52.754;6.866;2022-09-09T14:33:31;17.00;81.10
53926;DHT22;39836;52.754;6.866;2022-09-09T14:35:59;17.20;81.10
53926;DHT22;39836;52.754;6.866;2022-09-09T14:38:28;17.30;81.00
53926;DHT22;39836;52.754;6.866;2022-09-09T14:40:54;17.50;80.90
53926;DHT22;39836;52.754;6.866;2022-09-09T14:43:20;17.70;81.10
53926;DHT22;39836;52.754;6.866;2022-09-09T14:45:46;18.00;81.20
53926;DHT22;39836;52.754;6.866;2022-09-09T14:48:14;18.30;81.40
53926;DHT22;39836;52.754;6.866;2022-09-09T14:50:40;18.60;81.30
53926;DHT22;39836;52.754;6.866;2022-09-09T14:53:07;18.70;80.40
53926;DHT22;39836;52.754;6.866;2022-09-09T14:55:34;18.70;79.90
53926;DHT22;39836;52.754;6.866;2022-09-09T14:58:00;18.50;79.50
53926;DHT22;39836;52.754;6.866;2022-09-09T15:00:26;18.40;79.80
53926;DHT22;39836;52.754;6.866;2022-09-09T15:02:55;18.40;80.20
53926;DHT22;39836;52.754;6.866;2022-09-09T15:05:21;18.50;80.10
53926;DHT22;39836;52.754;6.866;2022-09-09T15:07:47;18.60;80.30
53926;DHT22;39836;52.754;6.866;2022-09-09T15:10:15;18.60;80.20
53926;DHT22;39836;52.754;6.866;2022-09-09T15:12:43;18.60;80.00
53926;DHT22;39836;52.754;6.866;2022-09-09T15:15:09;18.60;80.00
53926;DHT22;39836;52.754;6.866;2022-09-09T15:17:35;18.70;80.30
53926;DHT22;39836;52.754;6.866;2022-09-09T15:20:04;18.70;79.80
53926;DHT22;39836;52.754;6.866;2022-09-09T15:22:31;18.70;79.80
53926;DHT22;39836;52.754;6.866;2022-09-09T15:24:57;18.70;79.70
53926;DHT22;39836;52.754;6.866;2022-09-09T15:27:23;18.70;79.70
53926;DHT22;39836;52.754;6.866;2022-09-09T15:29:49;18.70;79.40
53926;DHT22;39836;52.754;6.866;2022-09-09T15:32:16;18.80;79.90
53926;DHT22;39836;52.754;6.866;2022-09-09T15:34:42;18.80;79.40
53926;DHT22;39836;52.754;6.866;2022-09-09T15:37:10;18.70;79.10
53926;DHT22;39836;52.754;6.866;2022-09-09T15:39:36;18.60;79.30
53926;DHT22;39836;52.754;6.866;2022-09-09T15:42:02;18.60;79.10
53926;DHT22;39836;52.754;6.866;2022-09-09T15:44:27;18.50;79.00
53926;DHT22;39836;52.754;6.866;2022-09-09T15:46:53;18.40;78.90
53926;DHT22;39836;52.754;6.866;2022-09-09T15:49:26;18.40;79.00
53926;DHT22;39836;52.754;6.866;2022-09-09T15:51:55;18.30;79.10
53926;DHT22;39836;52.754;6.866;2022-09-09T15:54:25;18.30;79.50
53926;DHT22;39836;52.754;6.866;2022-09-09T15:56:56;18.40;79.40
53926;DHT22;39836;52.754;6.866;2022-09-09T15:59:23;18.30;79.20
53926;DHT22;39836;52.754;6.866;2022-09-09T16:01:50;18.40;79.20
53926;DHT22;39836;52.754;6.866;2022-09-09T16:04:18;18.30;79.10
53926;DHT22;39836;52.754;6.866;2022-09-09T16:06:56;18.30;79.10
53926;DHT22;39836;52.754;6.866;2022-09-09T16:09:24;18.40;79.10
53926;DHT22;39836;52.754;6.866;2022-09-09T16:11:50;18.40;79.00
53926;DHT22;39836;52.754;6.866;2022-09-09T16:14:17;18.40;79.00
53926;DHT22;39836;52.754;6.866;2022-09-09T16:16:43;18.40;78.90
53926;DHT22;39836;52.754;6.866;2022-09-09T16:19:11;18.40;79.10
53926;DHT22;39836;52.754;6.866;2022-09-09T16:21:40;18.40;78.90
53926;DHT22;39836;52.754;6.866;2022-09-09T16:24:08;18.40;78.90
53926;DHT22;39836;52.754;6.866;2022-09-09T16:26:37;18.40;79.00
53926;DHT22;39836;52.754;6.866;2022-09-09T16:29:04;18.40;79.30
53926;DHT22;39836;52.754;6.866;2022-09-09T16:31:30;18.40;79.30
53926;DHT22;39836;52.754;6.866;2022-09-09T16:33:59;18.30;79.10
53926;DHT22;39836;52.754;6.866;2022-09-09T16:36:27;18.30;79.10
53926;DHT22;39836;52.754;6.866;2022-09-09T16:39:04;18.30;79.10
53926;DHT22;39836;52.754;6.866;2022-09-09T16:41:31;18.30;79.10
53926;DHT22;39836;52.754;6.866;2022-09-09T16:44:02;18.20;79.30
53926;DHT22;39836;52.754;6.866;2022-09-09T16:46:30;18.20;79.10
53926;DHT22;39836;52.754;6.866;2022-09-09T16:48:57;18.20;78.90
53926;DHT22;39836;52.754;6.866;2022-09-09T16:51:28;18.20;78.80
53926;DHT22;39836;52.754;6.866;2022-09-09T16:53:56;18.20;79.00
53926;DHT22;39836;52.754;6.866;2022-09-09T16:56:27;18.20;79.10
53926;DHT22;39836;52.754;6.866;2022-09-09T16:58:58;18.20;78.60
53926;DHT22;39836;52.754;6.866;2022-09-09T17:01:25;18.10;78.70
53926;DHT22;39836;52.754;6.866;2022-09-09T17:03:55;18.10;78.70
53926;DHT22;39836;52.754;6.866;2022-09-09T17:06:22;18.10;78.80
53926;DHT22;39836;52.754;6.866;2022-09-09T17:08:57;18.30;78.90
53926;DHT22;39836;52.754;6.866;2022-09-09T17:11:23;18.00;78.60
53926;DHT22;39836;52.754;6.866;2022-09-09T17:13:50;17.90;78.70
53926;DHT22;39836;52.754;6.866;2022-09-09T17:16:20;17.80;78.70
53926;DHT22;39836;52.754;6.866;2022-09-09T17:18:51;17.80;78.90
53926;DHT22;39836;52.754;6.866;2022-09-09T17:21:19;17.80;79.00
53926;DHT22;39836;52.754;6.866;2022-09-09T17:23:45;17.70;79.20
53926;DHT22;39836;52.754;6.866;2022-09-09T17:26:14;17.70;79.30
53926;DHT22;39836;52.754;6.866;2022-09-09T17:28:41;17.70;79.40
53926;DHT22;39836;52.754;6.866;2022-09-09T17:31:09;17.70;79.50
53926;DHT22;39836;52.754;6.866;2022-09-09T17:33:37;17.70;79.50
53926;DHT22;39836;52.754;6.866;2022-09-09T17:36:12;17.70;79.60
53926;DHT22;39836;52.754;6.866;2022-09-09T17:38:38;17.60;79.60
53926;DHT22;39836;52.754;6.866;2022-09-09T17:41:12;17.60;79.60
53926;DHT22;39836;52.754;6.866;2022-09-09T17:43:38;17.60;79.60